Time;durP1;ratioP1;P1;durP2;ratioP2;P2;SDS_P1;SDS_P2;PMS_P1;PMS_P2;Temp;Humidity;BMP_temperature;BMP_pressure;BME280_temperature;BME280_humidity;BME280_pressure;Samples;Min_cycle;Max_cycle;Signal;HPM_P1;HPM_P2
2022/12/21 00:00:11;;;;;;;;;;;11.00;91.10;;;;;;5073418;28;19999;-34
2022/12/21 00:02:37;;;;;;;;;;;10.90;91.10;;;;;;5071976;28;19958;-34
2022/12/21 00:05:03;;;;;;;;;;;10.90;91.10;;;;;;5073395;28;20367;-33
2022/12/21 00:07:28;;;;;;;;;;;10.90;91.10;;;;;;5073395;28;19966;-34
2022/12/21 00:09:54;;;;;;;;;;;10.90;91.10;;;;;;5073041;28;19912;-34
2022/12/21 00:12:19;;;;;;;;;;;10.90;91.10;;;;;;5072845;28;19920;-33
2022/12/21 00:14:45;;;;;;;;;;;10.90;91.10;;;;;;5073072;28;19919;-43
2022/12/21 00:17:10;;;;;;;;;;;10.90;91.10;;;;;;5073190;28;19952;-34
2022/12/21 00:19:36;;;;;;;;;;;10.90;91.20;;;;;;5073317;28;19913;-34
2022/12/21 00:22:01;;;;;;;;;;;10.80;91.10;;;;;;5072730;28;19920;-34
2022/12/21 00:24:27;;;;;;;;;;;10.90;91.20;;;;;;5073049;28;20416;-34
2022/12/21 00:26:52;;;;;;;;;;;10.90;91.20;;;;;;5072575;28;20291;-33
2022/12/21 00:29:18;;;;;;;;;;;10.90;91.10;;;;;;5073074;28;19919;-33
2022/12/21 00:31:43;;;;;;;;;;;10.90;91.10;;;;;;5072576;28;19943;-34
2022/12/21 00:34:12;;;;;;;;;;;10.90;91.10;;;;;;5072638;28;20372;-33
2022/12/21 00:36:37;;;;;;;;;;;10.90;91.10;;;;;;5072225;28;19920;-34
2022/12/21 00:39:03;;;;;;;;;;;10.90;91.10;;;;;;5072173;28;20372;-34
2022/12/21 00:41:28;;;;;;;;;;;10.80;91.10;;;;;;5072416;28;20008;-34
2022/12/21 00:43:54;;;;;;;;;;;10.90;91.10;;;;;;5071112;28;20302;-34
2022/12/21 00:46:21;;;;;;;;;;;10.80;91.10;;;;;;5072299;28;19912;-35
2022/12/21 00:48:47;;;;;;;;;;;10.80;91.10;;;;;;5072200;28;19919;-34
2022/12/21 00:51:13;;;;;;;;;;;10.80;91.10;;;;;;5072152;28;20256;-33
2022/12/21 00:53:39;;;;;;;;;;;10.80;91.10;;;;;;5072312;28;19957;-33
2022/12/21 00:56:05;;;;;;;;;;;10.90;91.20;;;;;;5072185;28;19912;-34
2022/12/21 00:58:31;;;;;;;;;;;10.90;91.10;;;;;;5072051;28;19912;-33
2022/12/21 01:00:59;;;;;;;;;;;10.90;91.10;;;;;;5072018;28;19919;-34
2022/12/21 01:03:25;;;;;;;;;;;10.90;91.10;;;;;;5072455;28;19942;-33
2022/12/21 01:05:51;;;;;;;;;;;10.90;91.10;;;;;;5071987;28;20003;-34
2022/12/21 01:08:17;;;;;;;;;;;10.90;91.10;;;;;;5072141;28;19919;-34
2022/12/21 01:10:43;;;;;;;;;;;10.80;91.10;;;;;;5072106;28;19919;-34
2022/12/21 01:13:09;;;;;;;;;;;10.80;91.10;;;;;;5072007;28;19925;-34
2022/12/21 01:15:39;;;;;;;;;;;10.80;91.10;;;;;;5072099;28;20003;-34
2022/12/21 01:18:04;;;;;;;;;;;10.80;91.10;;;;;;5072369;28;19923;-34
2022/12/21 01:20:30;;;;;;;;;;;10.80;91.10;;;;;;5071955;28;19912;-34
2022/12/21 01:22:55;;;;;;;;;;;10.80;91.10;;;;;;5071944;28;20003;-34
2022/12/21 01:25:21;;;;;;;;;;;10.70;91.10;;;;;;5072301;28;19912;-34
2022/12/21 01:27:46;;;;;;;;;;;10.70;91.10;;;;;;5071969;28;19912;-34
2022/12/21 01:30:12;;;;;;;;;;;10.70;91.10;;;;;;5071937;28;19957;-33
2022/12/21 01:32:37;;;;;;;;;;;10.70;91.10;;;;;;5072102;28;19961;-34
2022/12/21 01:35:03;;;;;;;;;;;10.70;91.10;;;;;;5071944;28;19912;-34
2022/12/21 01:37:29;;;;;;;;;;;10.70;91.10;;;;;;5071926;28;20440;-33
2022/12/21 01:39:55;;;;;;;;;;;10.70;91.10;;;;;;5072132;28;19959;-34
2022/12/21 01:42:20;;;;;;;;;;;10.70;91.10;;;;;;5071792;28;19913;-34
2022/12/21 01:44:46;;;;;;;;;;;10.70;91.10;;;;;;5071709;28;19919;-33
2022/12/21 01:47:19;;;;;;;;;;;10.70;91.10;;;;;;5071862;28;19974;-35
2022/12/21 01:49:50;;;;;;;;;;;10.70;91.10;;;;;;5074919;28;19912;-33
2022/12/21 01:52:16;;;;;;;;;;;10.80;91.10;;;;;;5075826;28;19956;-35
2022/12/21 01:54:45;;;;;;;;;;;10.80;91.10;;;;;;5075669;28;19999;-32
2022/12/21 01:57:12;;;;;;;;;;;10.80;91.10;;;;;;5075505;28;19919;-33
2022/12/21 01:59:39;;;;;;;;;;;10.80;91.10;;;;;;5075968;28;20330;-40
2022/12/21 02:02:10;;;;;;;;;;;10.80;91.10;;;;;;5075643;28;19961;-36
2022/12/21 02:04:36;;;;;;;;;;;10.80;91.10;;;;;;5075364;28;19913;-34
2022/12/21 02:07:01;;;;;;;;;;;10.80;91.10;;;;;;5075211;28;19912;-33
2022/12/21 02:09:29;;;;;;;;;;;10.80;91.10;;;;;;5075167;28;19967;-34
2022/12/21 02:11:56;;;;;;;;;;;10.80;91.10;;;;;;5074554;28;20019;-34
2022/12/21 02:14:21;;;;;;;;;;;10.80;91.10;;;;;;5075115;28;20383;-33
2022/12/21 02:16:50;;;;;;;;;;;10.80;91.10;;;;;;5075115;28;19913;-35
2022/12/21 02:19:50;;;;;;;;;;;10.80;91.10;;;;;;5074786;28;19962;-33
2022/12/21 02:22:38;;;;;;;;;;;10.80;91.10;;;;;;5074609;28;19913;-33
2022/12/21 02:25:22;;;;;;;;;;;10.80;91.10;;;;;;5074584;28;19912;-34
2022/12/21 02:27:54;;;;;;;;;;;10.80;91.10;;;;;;5074575;28;19913;-33
2022/12/21 02:30:20;;;;;;;;;;;10.80;91.10;;;;;;5074703;28;20350;-34
2022/12/21 02:32:59;;;;;;;;;;;10.80;91.10;;;;;;5074213;28;20403;-39
2022/12/21 02:35:30;;;;;;;;;;;10.80;91.00;;;;;;5074411;28;19920;-32
2022/12/21 02:38:14;;;;;;;;;;;10.70;91.00;;;;;;5074417;28;19913;-34
2022/12/21 02:41:02;;;;;;;;;;;10.70;91.10;;;;;;5074217;28;20019;-33
2022/12/21 02:46:30;;;;;;;;;;;10.70;91.10;;;;;;5074708;28;19920;-33
2022/12/21 02:49:04;;;;;;;;;;;10.70;91.10;;;;;;5074184;28;19916;-34
2022/12/21 02:51:32;;;;;;;;;;;10.70;91.10;;;;;;5074064;28;19916;-33
2022/12/21 02:53:58;;;;;;;;;;;10.70;91.10;;;;;;5074105;28;19919;-34
2022/12/21 02:56:23;;;;;;;;;;;10.70;91.10;;;;;;5074444;28;19912;-34
2022/12/21 02:58:49;;;;;;;;;;;10.70;91.10;;;;;;5074202;28;20443;-34
2022/12/21 03:01:14;;;;;;;;;;;10.70;91.10;;;;;;5073465;28;19916;-33
2022/12/21 03:03:58;;;;;;;;;;;10.70;91.10;;;;;;5074194;28;20288;-33
2022/12/21 03:06:26;;;;;;;;;;;10.60;91.00;;;;;;5074291;28;19912;-35
2022/12/21 03:09:04;;;;;;;;;;;10.60;91.10;;;;;;5073959;28;19912;-33
2022/12/21 03:11:55;;;;;;;;;;;10.60;91.10;;;;;;5073935;28;20434;-34
2022/12/21 03:14:26;;;;;;;;;;;10.60;91.10;;;;;;5069785;28;19919;-34
2022/12/21 03:16:53;;;;;;;;;;;10.60;91.10;;;;;;5072242;28;19991;-34
2022/12/21 03:19:19;;;;;;;;;;;10.60;91.10;;;;;;5073885;28;19919;-44
2022/12/21 03:21:46;;;;;;;;;;;10.60;91.10;;;;;;5073746;28;19912;-34
2022/12/21 03:24:12;;;;;;;;;;;10.60;91.10;;;;;;5073772;28;19912;-38
2022/12/21 03:26:50;;;;;;;;;;;10.60;91.10;;;;;;5073920;28;19919;-34
2022/12/21 03:29:17;;;;;;;;;;;10.60;91.10;;;;;;5073573;28;19912;-34
2022/12/21 03:31:45;;;;;;;;;;;10.60;91.10;;;;;;5073553;28;20013;-34
2022/12/21 03:34:17;;;;;;;;;;;10.60;91.10;;;;;;5073774;28;19977;-33
2022/12/21 03:36:45;;;;;;;;;;;10.60;91.10;;;;;;5073411;28;19920;-36
2022/12/21 03:39:12;;;;;;;;;;;10.60;91.10;;;;;;5073408;28;19912;-34
2022/12/21 03:41:40;;;;;;;;;;;10.50;91.10;;;;;;5073722;28;20018;-34
2022/12/21 03:44:08;;;;;;;;;;;10.50;91.10;;;;;;5073352;28;19912;-34
2022/12/21 03:46:37;;;;;;;;;;;10.60;91.10;;;;;;5073542;28;19919;-34
2022/12/21 03:49:07;;;;;;;;;;;10.50;91.10;;;;;;5073181;28;19913;-31
2022/12/21 03:51:41;;;;;;;;;;;10.60;91.10;;;;;;5073108;28;19966;-33
2022/12/21 03:54:11;;;;;;;;;;;10.60;91.10;;;;;;5073095;28;19983;-34
2022/12/21 03:56:37;;;;;;;;;;;10.60;91.10;;;;;;5073236;28;19928;-34
2022/12/21 03:59:03;;;;;;;;;;;10.60;91.10;;;;;;5072967;28;19999;-34
2022/12/21 04:01:29;;;;;;;;;;;10.60;91.10;;;;;;5073017;28;19966;-34
2022/12/21 04:03:58;;;;;;;;;;;10.60;91.10;;;;;;5072884;28;20433;-33
2022/12/21 04:06:27;;;;;;;;;;;10.60;91.10;;;;;;5072892;28;19912;-34
2022/12/21 04:08:53;;;;;;;;;;;10.60;91.10;;;;;;5072751;28;19912;-44
2022/12/21 04:14:03;;;;;;;;;;;10.60;91.10;;;;;;5072655;28;19919;-44
2022/12/21 04:16:28;;;;;;;;;;;10.60;91.10;;;;;;5072907;28;20015;-36
2022/12/21 04:21:38;;;;;;;;;;;10.60;91.10;;;;;;5072958;28;19919;-37
2022/12/21 04:29:32;;;;;;;;;;;10.60;91.10;;;;;;5073025;28;19919;-34
2022/12/21 04:31:57;;;;;;;;;;;10.60;91.10;;;;;;5072548;28;19916;-42
2022/12/21 04:34:22;;;;;;;;;;;10.60;91.10;;;;;;5072617;28;19912;-33
2022/12/21 04:39:32;;;;;;;;;;;10.60;91.10;;;;;;5072826;28;20276;-34
2022/12/21 04:41:57;;;;;;;;;;;10.60;91.10;;;;;;5072760;28;19912;-34
2022/12/21 04:44:23;;;;;;;;;;;10.60;91.10;;;;;;5072555;28;20023;-34
2022/12/21 04:46:48;;;;;;;;;;;10.50;91.10;;;;;;5072798;28;19923;-35
2022/12/21 04:49:14;;;;;;;;;;;10.60;91.10;;;;;;5072310;28;20388;-34
2022/12/21 04:51:39;;;;;;;;;;;10.50;91.10;;;;;;5072310;28;19916;-34
2022/12/21 04:54:05;;;;;;;;;;;10.50;91.10;;;;;;5072325;28;19920;-33
2022/12/21 04:56:31;;;;;;;;;;;10.50;91.10;;;;;;5072290;28;19912;-33
2022/12/21 04:58:56;;;;;;;;;;;10.50;91.10;;;;;;5072538;28;19919;-34
2022/12/21 05:01:22;;;;;;;;;;;10.50;91.10;;;;;;5072437;28;20309;-34
2022/12/21 05:03:48;;;;;;;;;;;10.40;91.10;;;;;;5072498;28;19919;-34
2022/12/21 05:06:14;;;;;;;;;;;10.50;91.20;;;;;;5072139;28;20339;-34
2022/12/21 05:08:40;;;;;;;;;;;10.50;91.10;;;;;;5072218;28;20029;-36
2022/12/21 05:11:10;;;;;;;;;;;10.40;91.10;;;;;;5072306;28;19931;-34
2022/12/21 05:13:35;;;;;;;;;;;10.50;91.10;;;;;;5072292;28;19956;-34
2022/12/21 05:16:01;;;;;;;;;;;10.40;91.10;;;;;;5072348;28;19920;-40
2022/12/21 05:18:27;;;;;;;;;;;10.50;91.20;;;;;;5072335;28;19912;-34
2022/12/21 05:20:53;;;;;;;;;;;10.50;91.10;;;;;;5072059;28;19935;-34
2022/12/21 05:23:18;;;;;;;;;;;10.50;91.10;;;;;;5072085;28;19999;-34
2022/12/21 05:25:44;;;;;;;;;;;10.40;91.10;;;;;;5071967;28;19967;-33
2022/12/21 05:28:09;;;;;;;;;;;10.40;91.10;;;;;;5072184;28;19916;-35
2022/12/21 05:30:35;;;;;;;;;;;10.40;91.10;;;;;;5071946;28;19993;-33
2022/12/21 05:33:00;;;;;;;;;;;10.40;91.10;;;;;;5071875;28;19912;-35
2022/12/21 05:35:26;;;;;;;;;;;10.40;91.10;;;;;;5072244;28;19966;-33
2022/12/21 05:37:51;;;;;;;;;;;10.40;91.10;;;;;;5071902;28;20003;-34
2022/12/21 05:40:17;;;;;;;;;;;10.40;91.10;;;;;;5071866;28;20378;-34
2022/12/21 05:42:42;;;;;;;;;;;10.30;91.10;;;;;;5071813;28;20277;-34
2022/12/21 05:45:08;;;;;;;;;;;10.30;91.10;;;;;;5071856;28;19978;-38
2022/12/21 05:47:33;;;;;;;;;;;10.30;91.10;;;;;;5071718;28;19904;-34
2022/12/21 05:49:59;;;;;;;;;;;10.30;91.10;;;;;;5071639;28;19915;-34
2022/12/21 05:52:24;;;;;;;;;;;10.40;91.10;;;;;;5071660;28;19970;-33
2022/12/21 05:54:50;;;;;;;;;;;10.40;91.10;;;;;;5071855;28;19951;-34
2022/12/21 05:57:15;;;;;;;;;;;10.40;91.10;;;;;;5071992;28;19908;-44
2022/12/21 05:59:41;;;;;;;;;;;10.40;91.10;;;;;;5071724;28;20279;-34
2022/12/21 06:02:06;;;;;;;;;;;10.40;91.10;;;;;;5071543;28;19953;-34
2022/12/21 06:04:32;;;;;;;;;;;10.40;91.00;;;;;;5071637;28;19908;-38
2022/12/21 06:06:57;;;;;;;;;;;10.30;91.10;;;;;;5071680;28;19909;-34
2022/12/21 06:09:23;;;;;;;;;;;10.30;91.10;;;;;;5071649;28;19909;-34
2022/12/21 06:11:48;;;;;;;;;;;10.30;91.10;;;;;;5071442;28;20019;-34
2022/12/21 06:14:14;;;;;;;;;;;10.30;91.10;;;;;;5071601;28;19919;-34
2022/12/21 06:16:40;;;;;;;;;;;10.30;91.10;;;;;;5071540;28;19909;-34
2022/12/21 06:19:07;;;;;;;;;;;10.30;91.10;;;;;;5071870;28;20337;-34
2022/12/21 06:21:32;;;;;;;;;;;10.30;91.10;;;;;;5071824;28;19954;-44
2022/12/21 06:23:58;;;;;;;;;;;10.30;91.10;;;;;;5071775;28;20315;-34
2022/12/21 06:26:24;;;;;;;;;;;10.30;91.10;;;;;;5071541;28;20001;-34
2022/12/21 06:28:50;;;;;;;;;;;10.30;91.10;;;;;;5071522;28;19908;-34
2022/12/21 06:31:16;;;;;;;;;;;10.30;91.10;;;;;;5071342;28;19908;-38
2022/12/21 06:33:41;;;;;;;;;;;10.30;91.10;;;;;;5071687;28;20007;-36
2022/12/21 06:36:07;;;;;;;;;;;10.30;91.10;;;;;;5073526;28;20283;-34
2022/12/21 06:38:33;;;;;;;;;;;10.30;91.10;;;;;;5075265;28;19915;-34
2022/12/21 06:41:03;;;;;;;;;;;10.30;91.10;;;;;;5074720;28;20007;-34
2022/12/21 06:43:30;;;;;;;;;;;10.30;91.10;;;;;;5075055;28;19999;-34
2022/12/21 06:46:00;;;;;;;;;;;10.30;91.10;;;;;;5074719;28;19909;-33
2022/12/21 06:48:26;;;;;;;;;;;10.30;91.10;;;;;;5074676;28;20015;-33
2022/12/21 06:50:56;;;;;;;;;;;10.30;91.10;;;;;;5075096;28;19908;-33
2022/12/21 06:53:22;;;;;;;;;;;10.30;91.10;;;;;;5074481;28;19970;-35
2022/12/21 06:55:48;;;;;;;;;;;10.30;91.10;;;;;;5074592;28;19909;-34
2022/12/21 06:58:14;;;;;;;;;;;10.30;91.10;;;;;;5074817;28;19912;-34
2022/12/21 07:00:39;;;;;;;;;;;10.30;91.10;;;;;;5074664;28;19998;-35
2022/12/21 07:03:05;;;;;;;;;;;10.30;91.10;;;;;;5074491;28;19912;-40
2022/12/21 07:05:30;;;;;;;;;;;10.30;91.10;;;;;;5074280;28;20295;-35
2022/12/21 07:07:56;;;;;;;;;;;10.30;91.10;;;;;;5074347;28;19915;-34
2022/12/21 07:10:21;;;;;;;;;;;10.30;91.10;;;;;;5074299;28;19963;-34
2022/12/21 07:12:46;;;;;;;;;;;10.30;91.10;;;;;;5074076;28;19924;-34
2022/12/21 07:15:12;;;;;;;;;;;10.30;91.10;;;;;;5074671;28;20030;-33
2022/12/21 07:17:37;;;;;;;;;;;10.30;91.10;;;;;;5074232;28;19916;-35
2022/12/21 07:20:04;;;;;;;;;;;10.30;91.10;;;;;;5074135;28;19909;-34
2022/12/21 07:22:29;;;;;;;;;;;10.30;91.00;;;;;;5074349;28;20114;-35
2022/12/21 07:24:54;;;;;;;;;;;10.20;91.00;;;;;;5073819;28;20398;-33
2022/12/21 07:27:20;;;;;;;;;;;10.20;91.10;;;;;;5074194;28;19998;-33
2022/12/21 07:29:45;;;;;;;;;;;10.20;91.10;;;;;;5073873;28;20151;-33
2022/12/21 07:32:11;;;;;;;;;;;10.20;91.10;;;;;;5073772;28;20006;-34
2022/12/21 07:34:36;;;;;;;;;;;10.20;91.10;;;;;;5073734;28;19909;-34
2022/12/21 07:37:02;;;;;;;;;;;10.20;91.10;;;;;;5073652;28;19908;-34
2022/12/21 07:39:27;;;;;;;;;;;10.10;91.10;;;;;;5073826;28;20291;-41
2022/12/21 07:41:53;;;;;;;;;;;10.10;91.10;;;;;;5074107;28;19908;-35
2022/12/21 07:44:18;;;;;;;;;;;10.20;91.10;;;;;;5074113;28;19955;-33
2022/12/21 07:46:44;;;;;;;;;;;10.10;91.10;;;;;;5072076;28;19916;-34
2022/12/21 07:49:09;;;;;;;;;;;10.10;91.10;;;;;;5073717;28;19909;-44
2022/12/21 07:51:35;;;;;;;;;;;10.10;91.10;;;;;;5073667;28;19908;-33
2022/12/21 07:54:00;;;;;;;;;;;10.20;91.10;;;;;;5073825;28;20003;-33
2022/12/21 07:56:26;;;;;;;;;;;10.10;91.10;;;;;;5073808;28;19935;-32
2022/12/21 07:58:51;;;;;;;;;;;10.10;91.10;;;;;;5073733;28;20011;-35
2022/12/21 08:01:17;;;;;;;;;;;10.10;91.10;;;;;;5073449;28;20334;-33
2022/12/21 08:03:47;;;;;;;;;;;10.10;91.10;;;;;;5073389;28;19915;-33
2022/12/21 08:06:13;;;;;;;;;;;10.10;91.10;;;;;;5073563;28;19909;-32
2022/12/21 08:08:38;;;;;;;;;;;10.20;91.10;;;;;;5055198;28;19908;-35
2022/12/21 08:11:05;;;;;;;;;;;10.10;91.10;;;;;;5073046;28;19924;-35
2022/12/21 08:13:30;;;;;;;;;;;10.10;91.10;;;;;;5073066;28;19916;-36
2022/12/21 08:16:03;;;;;;;;;;;10.10;91.10;;;;;;5073025;28;20240;-32
2022/12/21 08:18:29;;;;;;;;;;;10.10;91.10;;;;;;5073063;28;19913;-37
2022/12/21 08:20:58;;;;;;;;;;;10.10;91.10;;;;;;5072994;28;19999;-34
2022/12/21 08:23:24;;;;;;;;;;;10.10;91.10;;;;;;5072978;28;20001;-34
2022/12/21 08:25:50;;;;;;;;;;;10.00;91.00;;;;;;5073305;28;20288;-37
2022/12/21 08:28:15;;;;;;;;;;;10.00;91.10;;;;;;5073343;28;19908;-44
2022/12/21 08:30:41;;;;;;;;;;;10.00;91.10;;;;;;5072843;28;19908;-37
2022/12/21 08:33:07;;;;;;;;;;;10.00;91.10;;;;;;5072971;28;19912;-36
2022/12/21 08:35:35;;;;;;;;;;;10.00;91.10;;;;;;5072761;28;19909;-36
2022/12/21 08:38:00;;;;;;;;;;;10.00;91.10;;;;;;5072574;28;19914;-35
2022/12/21 08:40:26;;;;;;;;;;;10.00;91.10;;;;;;5072599;28;19999;-33
2022/12/21 08:42:51;;;;;;;;;;;9.90;91.10;;;;;;5071235;28;19961;-38
2022/12/21 08:45:17;;;;;;;;;;;10.00;91.20;;;;;;5072366;28;19959;-39
2022/12/21 08:47:43;;;;;;;;;;;10.00;91.10;;;;;;5072938;28;19912;-38
2022/12/21 08:50:08;;;;;;;;;;;10.00;91.10;;;;;;5072381;28;20030;-33
2022/12/21 08:52:34;;;;;;;;;;;10.00;91.10;;;;;;5072691;28;20363;-35
2022/12/21 08:55:02;;;;;;;;;;;10.00;91.10;;;;;;5072481;28;19916;-44
2022/12/21 08:57:29;;;;;;;;;;;10.10;91.10;;;;;;5072726;28;19915;-35
2022/12/21 08:59:55;;;;;;;;;;;10.00;91.00;;;;;;5072045;28;19932;-33
2022/12/21 09:02:20;;;;;;;;;;;10.10;91.10;;;;;;5073021;28;20352;-35
2022/12/21 09:04:46;;;;;;;;;;;10.10;91.00;;;;;;5072236;28;19908;-43
2022/12/21 09:07:11;;;;;;;;;;;10.10;91.00;;;;;;5072677;28;19909;-36
2022/12/21 09:09:37;;;;;;;;;;;10.10;91.00;;;;;;5072571;28;20436;-35
2022/12/21 09:12:03;;;;;;;;;;;10.20;91.00;;;;;;5072110;28;19924;-35
2022/12/21 09:14:28;;;;;;;;;;;10.20;91.20;;;;;;5072515;28;19920;-34
2022/12/21 09:16:54;;;;;;;;;;;10.20;90.90;;;;;;5072375;28;20368;-34
2022/12/21 09:19:19;;;;;;;;;;;10.20;90.90;;;;;;5072039;28;19909;-32
2022/12/21 09:21:45;;;;;;;;;;;10.30;90.90;;;;;;5071953;28;19915;-33
2022/12/21 09:24:11;;;;;;;;;;;10.30;90.90;;;;;;5072095;28;19908;-33
2022/12/21 09:26:36;;;;;;;;;;;10.30;90.80;;;;;;5072065;28;19950;-33
2022/12/21 09:29:02;;;;;;;;;;;10.30;90.80;;;;;;5072240;28;20376;-33
2022/12/21 09:31:28;;;;;;;;;;;10.30;90.80;;;;;;5071848;28;19908;-36
2022/12/21 09:33:54;;;;;;;;;;;10.30;90.70;;;;;;5072261;28;19915;-36
2022/12/21 09:36:20;;;;;;;;;;;10.30;90.70;;;;;;5072002;28;20205;-33
2022/12/21 09:38:46;;;;;;;;;;;10.30;90.70;;;;;;5072211;28;19916;-33
2022/12/21 09:41:27;;;;;;;;;;;10.30;90.70;;;;;;5072296;28;20372;-33
2022/12/21 09:44:06;;;;;;;;;;;10.30;90.70;;;;;;5072188;28;20368;-27
2022/12/21 09:46:35;;;;;;;;;;;10.20;90.70;;;;;;5072157;28;19909;-29
2022/12/21 09:49:05;;;;;;;;;;;10.30;90.70;;;;;;5072047;28;20413;-28
2022/12/21 09:51:33;;;;;;;;;;;10.30;90.70;;;;;;5071749;28;19913;-28
2022/12/21 09:54:04;;;;;;;;;;;10.30;90.70;;;;;;5071951;28;20269;-28
2022/12/21 09:56:30;;;;;;;;;;;10.30;90.70;;;;;;5071972;28;19908;-30
2022/12/21 09:58:59;;;;;;;;;;;10.40;90.70;;;;;;5071974;28;20330;-27
2022/12/21 10:01:27;;;;;;;;;;;10.40;90.70;;;;;;5071650;28;19914;-29
2022/12/21 10:03:59;;;;;;;;;;;10.30;90.70;;;;;;5071670;28;19909;-37
2022/12/21 10:06:37;;;;;;;;;;;10.30;90.70;;;;;;5071648;28;19908;-33
2022/12/21 10:09:10;;;;;;;;;;;10.40;90.70;;;;;;5071932;28;19952;-33
2022/12/21 10:11:36;;;;;;;;;;;10.40;90.70;;;;;;5074213;28;19924;-33
2022/12/21 10:14:13;;;;;;;;;;;10.30;90.60;;;;;;5075441;28;19917;-27
2022/12/21 10:16:45;;;;;;;;;;;10.30;90.60;;;;;;5075206;28;19919;-31
2022/12/21 10:19:29;;;;;;;;;;;10.30;90.60;;;;;;5075230;28;20003;-26
2022/12/21 10:22:00;;;;;;;;;;;10.30;90.60;;;;;;5075379;28;20364;-44
2022/12/21 10:24:28;;;;;;;;;;;10.30;90.60;;;;;;5075322;28;20453;-27
2022/12/21 10:26:58;;;;;;;;;;;10.30;90.60;;;;;;5075201;28;19915;-27
2022/12/21 10:29:30;;;;;;;;;;;10.20;90.90;;;;;;5075213;28;19912;-31
2022/12/21 10:31:55;;;;;;;;;;;10.20;90.60;;;;;;5074954;28;19935;-27
2022/12/21 10:34:24;;;;;;;;;;;10.20;90.60;;;;;;5074929;28;20368;-27
2022/12/21 10:36:54;;;;;;;;;;;10.20;90.60;;;;;;5075113;28;20387;-28
2022/12/21 10:39:19;;;;;;;;;;;10.30;90.70;;;;;;5074903;28;20007;-31
2022/12/21 10:41:50;;;;;;;;;;;10.20;90.60;;;;;;5074881;28;19959;-29
2022/12/21 10:44:16;;;;;;;;;;;10.20;90.60;;;;;;5075227;28;19940;-28
2022/12/21 10:46:41;;;;;;;;;;;10.20;90.60;;;;;;5074794;28;19908;-34
2022/12/21 10:49:16;;;;;;;;;;;10.20;90.60;;;;;;5075092;28;20352;-28
2022/12/21 10:51:42;;;;;;;;;;;10.10;90.60;;;;;;5074816;28;20403;-31
2022/12/21 10:54:09;;;;;;;;;;;10.10;90.60;;;;;;5074990;28;19967;-33
2022/12/21 10:56:45;;;;;;;;;;;10.10;90.60;;;;;;5075080;28;19915;-28
2022/12/21 10:59:22;;;;;;;;;;;10.10;90.70;;;;;;5074892;28;19957;-28
2022/12/21 11:01:48;;;;;;;;;;;10.10;90.70;;;;;;5074589;28;20054;-29
2022/12/21 11:04:17;;;;;;;;;;;10.10;90.60;;;;;;5074802;28;19913;-28
2022/12/21 11:06:59;;;;;;;;;;;10.20;90.60;;;;;;5074720;28;19957;-27
2022/12/21 11:09:26;;;;;;;;;;;10.20;90.90;;;;;;5074748;28;20361;-28
2022/12/21 11:11:52;;;;;;;;;;;10.20;90.60;;;;;;5074325;28;19928;-27
2022/12/21 11:14:18;;;;;;;;;;;10.20;90.60;;;;;;5074395;28;19909;-29
2022/12/21 11:16:44;;;;;;;;;;;10.20;90.60;;;;;;5074812;28;19918;-28
2022/12/21 11:19:11;;;;;;;;;;;10.20;90.60;;;;;;5074488;28;19909;-38
2022/12/21 11:21:39;;;;;;;;;;;10.20;90.60;;;;;;5073806;28;19940;-28
2022/12/21 11:24:04;;;;;;;;;;;10.30;90.60;;;;;;5074323;28;19909;-29
2022/12/21 11:26:32;;;;;;;;;;;10.40;90.60;;;;;;5073988;28;20271;-32
2022/12/21 11:28:59;;;;;;;;;;;10.40;90.50;;;;;;5074314;28;19913;-29
2022/12/21 11:31:26;;;;;;;;;;;10.40;90.50;;;;;;5072642;28;19916;-29
2022/12/21 11:33:51;;;;;;;;;;;10.50;90.50;;;;;;5073986;28;19999;-27
2022/12/21 11:36:17;;;;;;;;;;;10.50;90.40;;;;;;5073816;28;20403;-29
2022/12/21 11:38:43;;;;;;;;;;;10.50;90.40;;;;;;5073811;28;19909;-32
2022/12/21 11:41:14;;;;;;;;;;;10.50;90.40;;;;;;5073970;28;19914;-32
2022/12/21 11:43:46;;;;;;;;;;;10.50;90.70;;;;;;5074011;28;20003;-28
2022/12/21 11:46:18;;;;;;;;;;;10.50;90.40;;;;;;5073662;28;19909;-35
2022/12/21 11:49:10;;;;;;;;;;;10.60;90.40;;;;;;5073898;28;19908;-32
2022/12/21 11:51:42;;;;;;;;;;;10.60;90.30;;;;;;5069321;28;19913;-28
2022/12/21 11:54:30;;;;;;;;;;;10.60;90.30;;;;;;5073470;28;19909;-31
2022/12/21 11:57:01;;;;;;;;;;;10.60;90.30;;;;;;5035471;28;19913;-27
2022/12/21 11:59:50;;;;;;;;;;;10.60;90.30;;;;;;5073458;28;19908;-28
2022/12/21 12:02:28;;;;;;;;;;;10.60;90.30;;;;;;5062455;28;19974;-28
2022/12/21 12:05:17;;;;;;;;;;;10.60;90.30;;;;;;5073140;28;19908;-28
2022/12/21 12:07:42;;;;;;;;;;;10.70;90.30;;;;;;5073191;28;19909;-29
2022/12/21 12:10:19;;;;;;;;;;;10.70;90.20;;;;;;5073092;28;19915;-28
2022/12/21 12:12:51;;;;;;;;;;;10.60;90.20;;;;;;5072772;28;19927;-29
2022/12/21 12:15:17;;;;;;;;;;;10.60;90.20;;;;;;5073077;28;19909;-33
2022/12/21 12:17:42;;;;;;;;;;;10.60;90.20;;;;;;5073236;28;19995;-31
2022/12/21 12:20:26;;;;;;;;;;;10.60;90.10;;;;;;5072838;28;19999;-30
2022/12/21 12:23:09;;;;;;;;;;;10.60;90.10;;;;;;5072842;28;19909;-27
2022/12/21 12:25:40;;;;;;;;;;;10.60;90.10;;;;;;5072875;28;19915;-32
2022/12/21 12:28:12;;;;;;;;;;;10.50;90.10;;;;;;5072613;28;20238;-35
2022/12/21 12:30:57;;;;;;;;;;;10.50;90.10;;;;;;5071222;28;20356;-31
2022/12/21 12:33:38;;;;;;;;;;;10.50;90.10;;;;;;5072127;28;19912;-36
2022/12/21 12:36:22;;;;;;;;;;;10.50;90.00;;;;;;5072766;28;19909;-40
2022/12/21 12:39:01;;;;;;;;;;;10.50;90.10;;;;;;5072401;28;19908;-28
2022/12/21 12:41:33;;;;;;;;;;;10.50;90.00;;;;;;5072443;28;19909;-32
2022/12/21 12:44:04;;;;;;;;;;;10.40;89.80;;;;;;5072717;28;19970;-28
2022/12/21 12:46:29;;;;;;;;;;;10.40;89.80;;;;;;5072328;28;20375;-29
2022/12/21 12:49:07;;;;;;;;;;;10.30;89.90;;;;;;5072631;28;19916;-30
2022/12/21 12:51:32;;;;;;;;;;;10.40;90.00;;;;;;5072257;28;19959;-31
2022/12/21 12:54:13;;;;;;;;;;;10.40;90.00;;;;;;5072249;28;19997;-31
2022/12/21 12:56:38;;;;;;;;;;;10.40;90.00;;;;;;5072114;28;19909;-29
2022/12/21 12:59:14;;;;;;;;;;;10.40;89.90;;;;;;5072440;28;20225;-28
2022/12/21 13:01:40;;;;;;;;;;;10.40;89.70;;;;;;5072017;28;19935;-27
2022/12/21 13:04:24;;;;;;;;;;;10.40;89.80;;;;;;5071910;28;19912;-32
2022/12/21 13:07:29;;;;;;;;;;;10.30;89.70;;;;;;5072045;28;19931;-32
2022/12/21 13:10:00;;;;;;;;;;;10.30;89.80;;;;;;4990360;28;19921;-28
2022/12/21 13:12:37;;;;;;;;;;;10.30;89.70;;;;;;4990231;28;19922;-37
2022/12/21 13:15:14;;;;;;;;;;;10.20;89.80;;;;;;5038303;28;19908;-33
2022/12/21 13:17:42;;;;;;;;;;;10.20;89.90;;;;;;5072016;28;19908;-34
2022/12/21 13:20:11;;;;;;;;;;;10.20;89.80;;;;;;5072011;28;20364;-30
2022/12/21 13:22:37;;;;;;;;;;;10.20;89.90;;;;;;5072416;28;19909;-30
2022/12/21 13:25:25;;;;;;;;;;;10.20;89.90;;;;;;5072036;28;19916;-28
2022/12/21 13:27:53;;;;;;;;;;;10.20;89.90;;;;;;5072149;28;19908;-29
2022/12/21 13:30:19;;;;;;;;;;;10.20;89.90;;;;;;5072162;28;20429;-29
2022/12/21 13:32:56;;;;;;;;;;;10.20;89.90;;;;;;5072094;28;19920;-30
2022/12/21 13:35:28;;;;;;;;;;;10.20;90.00;;;;;;5072138;28;19916;-28
2022/12/21 13:38:02;;;;;;;;;;;10.20;89.70;;;;;;5071752;28;19960;-33
2022/12/21 13:40:30;;;;;;;;;;;10.20;89.70;;;;;;5071902;28;19909;-28
2022/12/21 13:43:01;;;;;;;;;;;10.20;89.80;;;;;;5071831;28;19908;-32
2022/12/21 13:45:37;;;;;;;;;;;10.20;89.90;;;;;;5074434;28;20027;-31
2022/12/21 13:48:04;;;;;;;;;;;10.20;89.70;;;;;;5076032;28;20364;-28
2022/12/21 13:50:29;;;;;;;;;;;10.20;89.70;;;;;;5075799;28;20008;-28
2022/12/21 13:53:07;;;;;;;;;;;10.20;89.70;;;;;;5076010;28;19991;-30
2022/12/21 13:55:35;;;;;;;;;;;10.20;89.70;;;;;;5076090;28;19916;-29
2022/12/21 13:58:14;;;;;;;;;;;10.30;89.70;;;;;;5076258;28;20414;-28
2022/12/21 14:00:41;;;;;;;;;;;10.30;89.70;;;;;;5075586;28;19908;-31
2022/12/21 14:03:26;;;;;;;;;;;10.20;89.60;;;;;;5075495;28;19908;-29
2022/12/21 14:06:07;;;;;;;;;;;10.30;89.60;;;;;;5075400;28;19912;-32
2022/12/21 14:08:56;;;;;;;;;;;10.30;89.70;;;;;;5075537;28;19909;-27
2022/12/21 14:11:34;;;;;;;;;;;10.30;89.60;;;;;;5075346;28;19917;-30
2022/12/21 14:14:09;;;;;;;;;;;10.30;89.50;;;;;;5075656;28;19916;-28
2022/12/21 14:16:35;;;;;;;;;;;10.30;89.60;;;;;;5075365;28;19909;-28
2022/12/21 14:19:02;;;;;;;;;;;10.30;89.60;;;;;;5075237;28;19909;-30
2022/12/21 14:21:31;;;;;;;;;;;10.30;89.50;;;;;;5075517;28;19916;-28
2022/12/21 14:24:01;;;;;;;;;;;10.30;89.50;;;;;;5075223;28;20007;-28
2022/12/21 14:26:44;;;;;;;;;;;10.40;89.50;;;;;;5075132;28;19909;-28
2022/12/21 14:29:32;;;;;;;;;;;10.30;89.50;;;;;;5075129;28;19995;-28
2022/12/21 14:31:58;;;;;;;;;;;10.40;89.60;;;;;;5075321;28;20308;-27
2022/12/21 14:34:25;;;;;;;;;;;10.40;89.50;;;;;;5075360;28;19977;-30
2022/12/21 14:37:08;;;;;;;;;;;10.30;89.40;;;;;;5075024;28;19969;-31
2022/12/21 14:39:38;;;;;;;;;;;10.30;89.50;;;;;;5075020;28;19915;-27
2022/12/21 14:42:22;;;;;;;;;;;10.30;89.40;;;;;;5074735;28;20003;-27